Terminal Aerodrome Forecast
Issued by NWS

Home | Current Version | Previous Version | Text Only | Print | Product List | Glossary On
Versions: 1 2 3 4 5 6 7 8 9 10 11 12 13
000
FTAK31 PAJN 141736
TAFAWG
TAF
PAWG 141736Z 1418/1518 09012G20KT P6SM -RA OVC035 WS020/15040KT
     FM142100 14010KT 4SM RA BR OVC015
     FM150300 17008KT 5SM -SHRA BR SCT015 OVC025
     FM150700 14007KT 5SM -SHRA BR SCT015 OVC025
      AMD LTD TO CLD VIS AND WIND 1506/1515=

USA.gov is the U.S. government's official web portal to all federal, state and local government web resources and services.